createdAt,value
2022-09-30T00:02:23.381Z,9.40
2022-09-30T00:04:52.457Z,9.40
2022-09-30T00:07:20.168Z,9.40
2022-09-30T00:09:48.681Z,9.40
2022-09-30T00:12:16.319Z,9.40
2022-09-30T00:14:44.081Z,9.50
2022-09-30T00:17:11.772Z,9.60
2022-09-30T00:19:39.584Z,9.60
2022-09-30T00:22:08.595Z,9.60
2022-09-30T00:24:36.301Z,9.60
2022-09-30T00:27:04.042Z,9.60
2022-09-30T00:29:31.862Z,9.70
2022-09-30T00:31:59.627Z,9.60
2022-09-30T00:34:27.361Z,9.70
2022-09-30T00:36:56.502Z,9.60
2022-09-30T00:39:26.571Z,9.60
2022-09-30T00:41:55.059Z,9.60
2022-09-30T00:44:41.218Z,9.60
2022-09-30T00:47:18.592Z,9.60
2022-09-30T00:49:46.403Z,9.50
2022-09-30T00:52:14.165Z,9.50
2022-09-30T00:54:43.717Z,9.60
2022-09-30T00:57:11.603Z,9.50
2022-09-30T00:59:41.600Z,9.60
2022-09-30T01:02:10.735Z,9.50
2022-09-30T01:04:38.967Z,9.50
2022-09-30T01:07:07.319Z,9.50
2022-09-30T01:09:36.057Z,9.60
2022-09-30T01:12:06.057Z,9.60
2022-09-30T01:14:33.820Z,9.60
2022-09-30T01:17:07.029Z,9.50
2022-09-30T01:19:51.929Z,9.50
2022-09-30T01:22:22.757Z,9.50
2022-09-30T01:25:07.885Z,9.50
2022-09-30T01:27:48.365Z,9.50
2022-09-30T01:30:19.887Z,9.60
2022-09-30T01:33:05.570Z,9.60
2022-09-30T01:35:39.800Z,9.60
2022-09-30T01:38:13.664Z,9.60
2022-09-30T01:40:47.046Z,9.50
2022-09-30T01:43:19.668Z,9.50
2022-09-30T01:45:50.934Z,9.50
2022-09-30T01:48:22.104Z,9.60
2022-09-30T01:50:54.066Z,9.50
2022-09-30T01:53:24.763Z,9.50
2022-09-30T01:55:55.999Z,9.50
2022-09-30T01:58:31.057Z,9.40
2022-09-30T02:01:01.503Z,9.40
2022-09-30T02:03:31.178Z,9.40
2022-09-30T02:06:03.039Z,9.40
2022-09-30T02:08:33.606Z,9.40
2022-09-30T02:11:03.385Z,9.40
2022-09-30T02:13:32.204Z,9.40
2022-09-30T02:16:02.389Z,9.40
2022-09-30T02:18:32.921Z,9.40
2022-09-30T02:21:03.398Z,9.40
2022-09-30T02:23:32.632Z,9.40
2022-09-30T02:26:05.922Z,9.40
2022-09-30T02:28:34.001Z,9.40
2022-09-30T02:31:03.369Z,9.40
2022-09-30T02:33:33.381Z,9.50
2022-09-30T02:36:05.951Z,9.40
2022-09-30T02:38:37.098Z,9.40
2022-09-30T02:41:08.009Z,9.30
2022-09-30T02:43:35.972Z,9.30
2022-09-30T02:46:06.832Z,9.20
2022-09-30T02:48:38.035Z,9.20
2022-09-30T02:51:11.175Z,9.20
2022-09-30T02:53:41.348Z,9.10
2022-09-30T02:56:17.139Z,9.10
2022-09-30T02:58:45.948Z,9.10
2022-09-30T03:01:14.782Z,9.10
2022-09-30T03:03:44.322Z,9.10
2022-09-30T03:06:13.681Z,9.00
2022-09-30T03:08:41.376Z,9.00
2022-09-30T03:11:09.262Z,9.00
2022-09-30T03:13:57.957Z,9.00
2022-09-30T03:16:30.593Z,9.00
2022-09-30T03:19:02.130Z,9.00
2022-09-30T03:21:35.442Z,9.00
2022-09-30T03:24:18.022Z,9.00
2022-09-30T03:26:51.948Z,8.90
2022-09-30T03:29:25.176Z,8.90
2022-09-30T03:31:58.512Z,8.90
2022-09-30T03:34:29.537Z,8.90
2022-09-30T03:37:04.290Z,8.90
2022-09-30T03:39:38.488Z,8.90
2022-09-30T03:42:10.371Z,8.90
2022-09-30T03:44:41.606Z,8.90
2022-09-30T03:47:10.863Z,8.90
2022-09-30T03:49:40.168Z,8.90
2022-09-30T03:52:10.121Z,8.90
2022-09-30T03:54:45.647Z,8.90
2022-09-30T03:57:13.523Z,8.80
2022-09-30T03:59:41.233Z,8.90
2022-09-30T04:02:13.230Z,8.90
2022-09-30T04:04:41.826Z,8.90
2022-09-30T04:07:11.248Z,8.90
2022-09-30T04:09:39.396Z,8.80
2022-09-30T04:12:08.284Z,8.80
2022-09-30T04:14:36.252Z,8.80
2022-09-30T04:17:04.638Z,8.80
2022-09-30T04:19:36.090Z,8.80
2022-09-30T04:22:03.750Z,8.80
2022-09-30T04:24:33.093Z,8.80
2022-09-30T04:27:00.825Z,8.80
2022-09-30T04:29:28.605Z,8.80
2022-09-30T04:31:56.347Z,8.80
2022-09-30T04:34:24.088Z,8.80
2022-09-30T04:36:51.808Z,8.80
2022-09-30T04:39:19.487Z,8.80
2022-09-30T04:41:48.543Z,8.80
2022-09-30T04:44:16.250Z,8.80
2022-09-30T04:46:44.014Z,8.80
2022-09-30T04:49:11.694Z,8.80
2022-09-30T04:51:43.851Z,8.80
2022-09-30T04:54:11.533Z,8.80
2022-09-30T04:56:39.223Z,8.80
2022-09-30T04:59:08.414Z,8.80
2022-09-30T05:01:36.277Z,8.80
2022-09-30T05:04:04.120Z,8.80
2022-09-30T05:06:31.799Z,8.80
2022-09-30T05:08:59.588Z,8.80
2022-09-30T05:11:27.675Z,8.80
2022-09-30T05:13:55.549Z,8.80
2022-09-30T05:16:24.666Z,8.80
2022-09-30T05:18:52.465Z,8.80
2022-09-30T05:21:20.745Z,8.80
2022-09-30T05:23:48.622Z,8.80
2022-09-30T05:26:16.697Z,8.80
2022-09-30T05:28:44.376Z,8.70
2022-09-30T05:31:13.631Z,8.70
2022-09-30T05:33:42.897Z,8.70
2022-09-30T05:36:13.020Z,8.70
2022-09-30T05:38:40.697Z,8.70
2022-09-30T05:41:11.173Z,8.70
2022-09-30T05:43:39.046Z,8.70
2022-09-30T05:46:07.178Z,8.70
2022-09-30T05:48:35.041Z,8.70
2022-09-30T05:51:04.262Z,8.70
2022-09-30T05:53:32.919Z,8.80
2022-09-30T05:56:00.638Z,8.80
2022-09-30T05:58:28.387Z,8.80
2022-09-30T06:00:56.062Z,8.70
2022-09-30T06:03:23.985Z,8.70
2022-09-30T06:05:56.660Z,8.80
2022-09-30T06:08:25.961Z,8.80
2022-09-30T06:10:53.683Z,8.80
2022-09-30T06:13:22.128Z,8.80
2022-09-30T06:15:57.018Z,8.80
2022-09-30T06:18:25.491Z,8.80
2022-09-30T06:20:54.496Z,8.80
2022-09-30T06:23:22.189Z,8.80
2022-09-30T06:25:52.783Z,8.80
2022-09-30T06:28:21.025Z,8.90
2022-09-30T06:30:48.934Z,8.90
2022-09-30T06:33:17.377Z,8.90
2022-09-30T06:35:47.282Z,8.90
2022-09-30T06:38:16.603Z,8.90
2022-09-30T06:40:44.690Z,9.00
2022-09-30T06:43:13.843Z,9.00
2022-09-30T06:45:41.582Z,9.10
2022-09-30T06:48:10.753Z,9.10
2022-09-30T06:50:39.152Z,9.20
2022-09-30T06:53:07.840Z,9.20
2022-09-30T06:55:38.787Z,9.20
2022-09-30T06:58:08.300Z,9.30
2022-09-30T07:00:37.603Z,9.40
2022-09-30T07:03:09.624Z,9.40
2022-09-30T07:05:37.358Z,9.50
2022-09-30T07:08:05.826Z,9.40
2022-09-30T07:10:33.498Z,9.40
2022-09-30T07:13:02.673Z,9.50
2022-09-30T07:15:30.352Z,9.50
2022-09-30T07:18:00.596Z,9.60
2022-09-30T07:20:28.329Z,9.60
2022-09-30T07:22:58.820Z,9.70
2022-09-30T07:25:26.588Z,9.70
2022-09-30T07:27:54.866Z,9.80
2022-09-30T07:30:27.087Z,9.90
2022-09-30T07:32:55.229Z,9.90
2022-09-30T07:35:24.286Z,9.90
2022-09-30T07:37:51.971Z,9.90
2022-09-30T07:40:19.714Z,10.00
2022-09-30T07:42:47.421Z,10.10
2022-09-30T07:45:19.283Z,10.20
2022-09-30T07:47:51.190Z,10.20
2022-09-30T07:50:21.317Z,10.30
2022-09-30T07:52:50.392Z,10.40
2022-09-30T07:55:18.089Z,10.50
2022-09-30T07:57:45.808Z,10.50
2022-09-30T08:00:40.652Z,10.60
2022-09-30T08:03:01.548Z,10.50
2022-09-30T08:05:29.277Z,10.60
2022-09-30T08:07:58.313Z,10.70
2022-09-30T08:10:26.031Z,10.70
2022-09-30T08:12:56.136Z,10.80
2022-09-30T08:15:26.840Z,11.00
2022-09-30T08:17:54.547Z,11.10
2022-09-30T08:20:22.824Z,11.30
2022-09-30T08:22:53.102Z,11.40
2022-09-30T08:25:22.543Z,11.60
2022-09-30T08:27:50.376Z,11.80
2022-09-30T08:30:18.229Z,11.90
2022-09-30T08:32:45.896Z,12.00
2022-09-30T08:35:13.626Z,12.10
2022-09-30T08:37:41.341Z,12.30
2022-09-30T08:40:11.315Z,12.30
2022-09-30T08:42:50.542Z,12.30
2022-09-30T08:45:29.915Z,12.40
2022-09-30T08:48:04.123Z,12.50
2022-09-30T08:50:35.294Z,12.80
2022-09-30T08:53:04.802Z,13.00
2022-09-30T08:55:36.137Z,13.20
2022-09-30T08:58:05.925Z,13.40
2022-09-30T09:00:34.279Z,13.60
2022-09-30T09:03:03.109Z,13.70
2022-09-30T09:05:38.136Z,13.80
2022-09-30T09:08:08.734Z,14.00
2022-09-30T09:10:40.997Z,14.20
2022-09-30T09:13:16.862Z,14.30
2022-09-30T09:15:51.949Z,14.50
2022-09-30T09:18:29.870Z,14.70
2022-09-30T09:20:58.409Z,14.90
2022-09-30T09:23:26.725Z,15.10
2022-09-30T09:25:55.682Z,15.40
2022-09-30T09:28:30.744Z,15.90
2022-09-30T09:31:00.497Z,16.60
2022-09-30T09:33:31.954Z,17.20
2022-09-30T09:36:09.622Z,18.10
2022-09-30T09:38:47.635Z,19.10
2022-09-30T09:41:25.813Z,20.00
2022-09-30T09:44:01.551Z,20.70
2022-09-30T09:46:34.210Z,21.20
2022-09-30T09:49:31.012Z,21.30
2022-09-30T09:52:24.180Z,22.00
2022-09-30T09:54:56.628Z,23.20
2022-09-30T09:57:27.771Z,24.50
2022-09-30T10:02:33.049Z,26.90
2022-09-30T10:05:01.326Z,27.80
2022-09-30T10:07:30.857Z,28.70
2022-09-30T10:10:22.350Z,29.90
2022-09-30T10:12:51.522Z,30.50
2022-09-30T10:15:24.273Z,31.20
2022-09-30T10:17:55.020Z,31.60
2022-09-30T10:20:31.389Z,32.30
2022-09-30T10:23:08.875Z,33.00
2022-09-30T10:25:37.234Z,34.00
2022-09-30T10:28:23.134Z,34.90
2022-09-30T10:30:57.295Z,35.50
2022-09-30T10:33:29.689Z,35.90
2022-09-30T10:36:03.278Z,36.60
2022-09-30T10:38:34.026Z,37.10
2022-09-30T10:41:04.153Z,37.10
2022-09-30T10:43:39.160Z,36.70
2022-09-30T10:46:27.247Z,36.60
2022-09-30T10:48:57.526Z,36.90
2022-09-30T10:51:29.436Z,36.90
2022-09-30T10:53:57.844Z,37.00
2022-09-30T10:56:45.558Z,37.30
2022-09-30T10:59:24.468Z,37.00
2022-09-30T11:01:59.994Z,36.30
2022-09-30T11:04:34.912Z,36.10
2022-09-30T11:07:15.060Z,36.20
2022-09-30T11:09:49.198Z,36.40
2022-09-30T11:12:23.732Z,36.90
2022-09-30T11:14:58.818Z,37.40
2022-09-30T11:17:39.346Z,37.90
2022-09-30T11:20:16.752Z,37.90
2022-09-30T11:22:52.788Z,38.30
2022-09-30T11:25:27.103Z,39.10
2022-09-30T11:28:09.489Z,39.40
2022-09-30T11:30:45.470Z,39.70
2022-09-30T11:33:36.143Z,40.30
2022-09-30T11:36:11.696Z,40.60
2022-09-30T11:38:52.694Z,41.00
2022-09-30T11:41:29.543Z,41.00
2022-09-30T11:44:08.783Z,40.90
2022-09-30T11:47:02.709Z,41.10
2022-09-30T11:50:01.045Z,40.80
2022-09-30T11:52:39.786Z,40.90
2022-09-30T11:55:33.897Z,40.70
2022-09-30T11:58:28.782Z,40.00
2022-09-30T12:00:59.554Z,39.80
2022-09-30T12:03:31.340Z,40.00
2022-09-30T12:06:06.046Z,40.40
2022-09-30T12:08:37.129Z,41.00
2022-09-30T12:11:17.773Z,41.00
2022-09-30T12:13:51.715Z,41.10
2022-09-30T12:16:24.357Z,40.90
2022-09-30T12:18:58.552Z,40.50
2022-09-30T12:21:34.810Z,40.60
2022-09-30T12:24:11.436Z,40.80
2022-09-30T12:26:41.395Z,40.60
2022-09-30T12:29:33.839Z,40.50
2022-09-30T12:32:26.677Z,40.50
2022-09-30T12:35:05.846Z,40.40
2022-09-30T12:37:48.667Z,40.70
2022-09-30T12:40:38.489Z,40.70
2022-09-30T12:43:34.471Z,40.60
2022-09-30T12:46:14.261Z,40.60
2022-09-30T12:48:44.548Z,40.40
2022-09-30T12:51:25.192Z,40.40
2022-09-30T12:54:04.442Z,40.40
2022-09-30T12:56:34.471Z,40.10
2022-09-30T12:59:03.833Z,40.20
2022-09-30T13:01:36.502Z,40.20
2022-09-30T13:04:30.079Z,40.10
2022-09-30T13:07:18.093Z,40.10
2022-09-30T13:10:15.790Z,39.60
2022-09-30T13:12:46.596Z,38.40
2022-09-30T13:15:39.756Z,38.00
2022-09-30T13:18:45.077Z,38.30
2022-09-30T13:21:24.486Z,38.60
2022-09-30T13:23:53.139Z,38.70
2022-09-30T13:26:46.277Z,38.70
2022-09-30T13:29:38.145Z,38.50
2022-09-30T13:32:11.938Z,36.50
2022-09-30T13:34:59.284Z,34.60
2022-09-30T13:37:44.765Z,32.60
2022-09-30T13:40:49.837Z,31.70
2022-09-30T13:43:19.564Z,32.00
2022-09-30T13:45:50.858Z,32.80
2022-09-30T13:48:23.009Z,33.50
2022-09-30T13:50:53.108Z,34.10
2022-09-30T13:53:28.712Z,34.50
2022-09-30T13:55:58.169Z,34.50
2022-09-30T13:58:56.515Z,33.30
2022-09-30T14:01:40.661Z,32.40
2022-09-30T14:04:45.893Z,32.10
2022-09-30T14:07:22.963Z,31.30
2022-09-30T14:10:29.790Z,30.00
2022-09-30T14:13:16.044Z,28.60
2022-09-30T14:16:10.199Z,27.30
2022-09-30T14:19:06.496Z,26.30
2022-09-30T14:21:38.620Z,25.40
2022-09-30T14:24:14.066Z,24.70
2022-09-30T14:27:08.330Z,24.10
2022-09-30T14:29:44.356Z,23.70
2022-09-30T14:32:18.713Z,23.20
2022-09-30T14:34:47.950Z,22.90
2022-09-30T14:37:22.681Z,22.60
2022-09-30T14:39:50.920Z,22.30
2022-09-30T14:42:32.638Z,22.10
2022-09-30T14:45:05.262Z,21.80
2022-09-30T14:47:39.311Z,21.60
2022-09-30T14:50:12.447Z,21.40
2022-09-30T14:52:45.205Z,21.20
2022-09-30T14:55:27.079Z,21.00
2022-09-30T14:57:56.147Z,20.90
2022-09-30T15:00:29.939Z,20.80
2022-09-30T15:03:00.198Z,20.60
2022-09-30T15:05:29.532Z,20.50
2022-09-30T15:07:57.434Z,20.40
2022-09-30T15:10:26.270Z,20.40
2022-09-30T15:12:56.205Z,20.20
2022-09-30T15:15:28.474Z,20.10
2022-09-30T15:17:56.842Z,20.00
2022-09-30T15:20:31.887Z,19.90
2022-09-30T15:23:03.416Z,19.80
2022-09-30T15:25:32.442Z,19.70
2022-09-30T15:28:00.500Z,19.60
2022-09-30T15:30:30.162Z,19.50
2022-09-30T15:33:01.100Z,19.40
2022-09-30T15:35:31.140Z,19.30
2022-09-30T15:38:09.429Z,19.20
2022-09-30T15:40:50.541Z,19.10
2022-09-30T15:43:33.390Z,19.00
2022-09-30T15:46:22.445Z,18.90
2022-09-30T15:48:50.954Z,18.90
2022-09-30T15:51:35.449Z,18.80
2022-09-30T15:54:27.298Z,18.80
2022-09-30T15:56:56.387Z,18.70
2022-09-30T15:59:24.665Z,18.60
2022-09-30T16:01:57.028Z,18.50
2022-09-30T16:04:26.837Z,18.50
2022-09-30T16:06:58.087Z,18.40
2022-09-30T16:09:30.706Z,18.30
2022-09-30T16:12:05.353Z,18.30
2022-09-30T16:14:37.263Z,18.20
2022-09-30T16:17:06.463Z,18.10
2022-09-30T16:19:35.061Z,18.00
2022-09-30T16:22:04.341Z,18.00
2022-09-30T16:24:49.004Z,17.80
2022-09-30T16:27:30.193Z,17.80
2022-09-30T16:29:58.808Z,17.60
2022-09-30T16:32:29.185Z,17.50
2022-09-30T16:34:58.343Z,17.40
2022-09-30T16:37:27.660Z,17.30
2022-09-30T16:39:59.381Z,17.20
2022-09-30T16:42:27.278Z,17.10
2022-09-30T16:44:55.927Z,17.00
2022-09-30T16:47:23.825Z,16.90
2022-09-30T16:49:52.061Z,16.80
2022-09-30T16:52:20.166Z,16.60
2022-09-30T16:54:49.408Z,16.50
2022-09-30T16:57:17.258Z,16.40
2022-09-30T16:59:46.617Z,16.30
2022-09-30T17:02:16.289Z,16.20
2022-09-30T17:04:45.359Z,16.10
2022-09-30T17:07:14.928Z,16.00
2022-09-30T17:09:45.915Z,15.80
2022-09-30T17:12:15.133Z,15.80
2022-09-30T17:14:43.850Z,15.70
2022-09-30T17:17:13.721Z,15.60
2022-09-30T17:19:42.095Z,15.50
2022-09-30T17:22:09.966Z,15.40
2022-09-30T17:24:37.785Z,15.40
2022-09-30T17:27:05.644Z,15.30
2022-09-30T17:29:37.111Z,15.30
2022-09-30T17:32:07.687Z,15.20
2022-09-30T17:34:35.570Z,15.20
2022-09-30T17:37:03.479Z,15.10
2022-09-30T17:39:31.370Z,15.10
2022-09-30T17:42:16.866Z,15.00
2022-09-30T17:44:46.160Z,15.00
2022-09-30T17:47:13.972Z,14.90
2022-09-30T17:49:41.817Z,14.80
2022-09-30T17:52:09.909Z,14.80
2022-09-30T17:54:37.758Z,14.70
2022-09-30T17:57:05.673Z,14.70
2022-09-30T17:59:33.774Z,14.70
2022-09-30T18:02:03.116Z,14.60
2022-09-30T18:04:31.185Z,14.50
2022-09-30T18:06:59.278Z,14.40
2022-09-30T18:09:27.267Z,14.40
2022-09-30T18:11:55.234Z,14.30
2022-09-30T18:14:23.139Z,14.30
2022-09-30T18:16:51.068Z,14.20
2022-09-30T18:19:20.379Z,14.10
2022-09-30T18:21:48.290Z,14.00
2022-09-30T18:24:16.129Z,14.00
2022-09-30T18:26:44.025Z,14.00
2022-09-30T18:29:11.855Z,14.00
2022-09-30T18:31:40.836Z,13.90
2022-09-30T18:34:08.761Z,13.90
2022-09-30T18:36:37.958Z,13.90
2022-09-30T18:39:06.024Z,13.80
2022-09-30T18:41:35.811Z,13.80
2022-09-30T18:44:04.392Z,13.80
2022-09-30T18:46:32.664Z,13.80
2022-09-30T18:49:01.726Z,13.80
2022-09-30T18:51:30.533Z,13.80
2022-09-30T18:54:01.637Z,13.70
2022-09-30T18:56:32.470Z,13.60
2022-09-30T18:59:01.102Z,13.60
2022-09-30T19:01:29.182Z,13.60
2022-09-30T19:03:57.226Z,13.50
2022-09-30T19:06:25.137Z,13.50
2022-09-30T19:08:53.007Z,13.50
2022-09-30T19:11:23.179Z,13.50
2022-09-30T19:13:53.317Z,13.50
2022-09-30T19:16:22.175Z,13.40
2022-09-30T19:18:50.935Z,13.40
2022-09-30T19:21:20.337Z,13.40
2022-09-30T19:23:48.993Z,13.30
2022-09-30T19:26:17.016Z,13.20
2022-09-30T19:28:46.255Z,13.20
2022-09-30T19:31:16.998Z,13.10
2022-09-30T19:33:54.526Z,13.10
2022-09-30T19:36:27.006Z,13.10
2022-09-30T19:39:10.576Z,13.00
2022-09-30T19:41:39.999Z,13.00
2022-09-30T19:44:09.429Z,13.00
2022-09-30T19:46:37.537Z,13.00
2022-09-30T19:49:05.437Z,13.00
2022-09-30T19:51:34.369Z,13.00
2022-09-30T19:54:07.129Z,12.90
2022-09-30T19:56:36.894Z,12.80
2022-09-30T19:59:04.981Z,12.80
2022-09-30T20:01:35.595Z,12.80
2022-09-30T20:04:05.352Z,12.80
2022-09-30T20:06:34.853Z,12.70
2022-09-30T20:09:08.373Z,12.70
2022-09-30T20:11:38.305Z,12.70
2022-09-30T20:14:26.369Z,12.60
2022-09-30T20:16:55.980Z,12.60
2022-09-30T20:19:24.310Z,12.60
2022-09-30T20:21:54.854Z,12.50
2022-09-30T20:24:22.828Z,12.50
2022-09-30T20:26:51.200Z,12.50
2022-09-30T20:29:20.740Z,12.50
2022-09-30T20:31:49.213Z,12.50
2022-09-30T20:34:20.153Z,12.40
2022-09-30T20:36:48.392Z,12.40
2022-09-30T20:39:16.345Z,12.40
2022-09-30T20:41:45.967Z,12.40
2022-09-30T20:44:14.135Z,12.40
2022-09-30T20:46:43.161Z,12.30
2022-09-30T20:49:11.083Z,12.30
2022-09-30T20:51:40.334Z,12.30
2022-09-30T20:54:08.366Z,12.20
2022-09-30T20:57:05.396Z,12.20
2022-09-30T20:59:24.321Z,12.20
2022-09-30T21:01:52.185Z,12.10
2022-09-30T21:04:21.257Z,12.10
2022-09-30T21:06:50.561Z,12.00
2022-09-30T21:09:18.441Z,11.90
2022-09-30T21:11:46.392Z,11.90
2022-09-30T21:14:17.451Z,11.90
2022-09-30T21:16:45.346Z,11.90
2022-09-30T21:19:13.223Z,11.80
2022-09-30T21:21:41.049Z,11.80
2022-09-30T21:24:14.603Z,11.80
2022-09-30T21:26:42.432Z,11.80
2022-09-30T21:29:10.508Z,11.70
2022-09-30T21:31:38.669Z,11.70
2022-09-30T21:34:06.685Z,11.70
2022-09-30T21:36:34.689Z,11.70
2022-09-30T21:39:03.506Z,11.70
2022-09-30T21:41:33.614Z,11.70
2022-09-30T21:44:04.246Z,11.70
2022-09-30T21:46:32.130Z,11.60
2022-09-30T21:49:07.228Z,11.60
2022-09-30T21:51:35.567Z,11.60
2022-09-30T21:54:03.664Z,11.50
2022-09-30T21:56:33.037Z,11.50
2022-09-30T21:59:01.025Z,11.50
2022-09-30T22:01:30.229Z,11.50
2022-09-30T22:03:58.881Z,11.50
2022-09-30T22:06:26.892Z,11.50
2022-09-30T22:08:54.797Z,11.50
2022-09-30T22:11:25.035Z,11.40
2022-09-30T22:13:56.037Z,11.40
2022-09-30T22:16:26.971Z,11.40
2022-09-30T22:18:55.659Z,11.40
2022-09-30T22:21:23.502Z,11.30
2022-09-30T22:23:52.011Z,11.20
2022-09-30T22:26:22.577Z,11.30
2022-09-30T22:28:57.158Z,11.20
2022-09-30T22:31:27.486Z,11.20
2022-09-30T22:34:14.558Z,11.20
2022-09-30T22:37:00.625Z,11.20
2022-09-30T22:39:28.578Z,11.20
2022-09-30T22:41:57.734Z,11.20
2022-09-30T22:44:28.597Z,11.10
2022-09-30T22:46:57.532Z,11.00
2022-09-30T22:49:25.922Z,11.10
2022-09-30T22:51:54.515Z,11.10
2022-09-30T22:54:23.140Z,11.10
2022-09-30T22:56:51.194Z,11.10
2022-09-30T22:59:19.574Z,11.10
2022-09-30T23:01:49.362Z,11.10
2022-09-30T23:04:17.766Z,11.00
2022-09-30T23:06:48.506Z,11.00
2022-09-30T23:09:17.177Z,11.10
2022-09-30T23:11:45.973Z,11.10
2022-09-30T23:14:14.415Z,11.10
2022-09-30T23:16:42.844Z,11.10
2022-09-30T23:19:12.352Z,11.10
2022-09-30T23:21:40.745Z,11.10
2022-09-30T23:24:08.981Z,11.20
2022-09-30T23:26:37.184Z,11.10
2022-09-30T23:29:06.554Z,11.10
2022-09-30T23:31:35.088Z,11.20
2022-09-30T23:34:04.721Z,11.20
2022-09-30T23:36:36.705Z,11.20
2022-09-30T23:39:08.181Z,11.20
2022-09-30T23:41:36.829Z,11.20
2022-09-30T23:44:05.037Z,11.20
2022-09-30T23:46:33.252Z,11.20
2022-09-30T23:49:01.118Z,11.20
2022-09-30T23:51:28.943Z,11.20
2022-09-30T23:53:58.182Z,11.10
2022-09-30T23:56:26.031Z,11.10
2022-09-30T23:58:53.888Z,11.00
